Time;durP1;ratioP1;P1;durP2;ratioP2;P2;SDS_P1;SDS_P2;PMS_P1;PMS_P2;Temp;Humidity;BMP_temperature;BMP_pressure;BME280_temperature;BME280_humidity;BME280_pressure;Samples;Min_cycle;Max_cycle;Signal;HPM_P1;HPM_P2
2024/01/30 00:01:15;;;;;;;5.05;2.38;;;4.10;91.00;;;;;;5043516;28;20033;-67
2024/01/30 00:03:41;;;;;;;3.42;2.28;;;4.00;90.90;;;;;;5048274;28;20025;-67
2024/01/30 00:06:07;;;;;;;5.47;2.20;;;3.90;91.10;;;;;;5050214;28;20116;-67
2024/01/30 00:08:33;;;;;;;4.88;2.42;;;4.00;91.10;;;;;;5052208;28;20025;-67
2024/01/30 00:10:58;;;;;;;4.75;2.60;;;4.00;91.20;;;;;;5045441;28;20048;-67
2024/01/30 00:13:24;;;;;;;4.93;2.45;;;3.90;91.10;;;;;;5049592;28;20112;-67
2024/01/30 00:15:49;;;;;;;4.40;2.45;;;4.00;91.50;;;;;;5047005;28;20056;-67
2024/01/30 00:18:15;;;;;;;4.30;2.35;;;4.10;91.60;;;;;;5048727;28;20120;-68
2024/01/30 00:20:40;;;;;;;4.15;2.17;;;4.20;91.00;;;;;;5050242;28;20091;-67
2024/01/30 00:23:06;;;;;;;4.25;2.08;;;4.30;91.10;;;;;;5048627;28;20424;-67
2024/01/30 00:25:33;;;;;;;3.95;2.38;;;4.40;90.60;;;;;;5048160;28;21602;-67
2024/01/30 00:27:58;;;;;;;5.38;2.60;;;4.40;90.60;;;;;;5048519;28;20385;-68
2024/01/30 00:30:24;;;;;;;4.28;2.60;;;4.60;90.40;;;;;;5050735;28;20044;-68
2024/01/30 00:32:49;;;;;;;5.13;2.38;;;4.40;90.20;;;;;;5047994;28;20124;-67
2024/01/30 00:35:15;;;;;;;4.97;2.78;;;4.50;90.20;;;;;;5032919;28;20083;-68
2024/01/30 00:37:40;;;;;;;4.38;2.25;;;4.40;90.30;;;;;;5048213;28;20037;-68
2024/01/30 00:40:06;;;;;;;5.40;2.67;;;4.40;90.30;;;;;;5055776;28;20498;-68
2024/01/30 00:42:31;;;;;;;6.63;2.42;;;4.40;90.40;;;;;;5048184;28;20037;-68
2024/01/30 00:44:58;;;;;;;4.15;2.35;;;4.40;90.50;;;;;;5049900;28;20438;-68
2024/01/30 00:47:23;;;;;;;4.57;2.38;;;4.50;90.40;;;;;;5042078;28;20037;-67
2024/01/30 00:49:49;;;;;;;6.38;3.00;;;4.50;90.50;;;;;;5044181;28;20037;-67
2024/01/30 00:52:15;;;;;;;8.93;3.08;;;4.40;90.40;;;;;;5049261;28;20032;-68
2024/01/30 00:54:41;;;;;;;6.95;2.85;;;4.50;90.50;;;;;;5047209;28;20036;-67
2024/01/30 00:57:07;;;;;;;4.32;2.35;;;4.50;90.60;;;;;;5031620;28;20033;-68
2024/01/30 00:59:32;;;;;;;5.50;2.95;;;4.40;90.70;;;;;;5049227;28;20047;-67
2024/01/30 01:01:58;;;;;;;4.35;2.42;;;4.30;90.70;;;;;;5048136;28;20455;-67
2024/01/30 01:04:23;;;;;;;4.97;2.75;;;4.20;90.80;;;;;;5029481;28;20036;-68
2024/01/30 01:06:49;;;;;;;5.15;2.50;;;4.30;90.80;;;;;;5048898;28;20468;-68
2024/01/30 01:09:15;;;;;;;5.00;2.67;;;4.20;91.00;;;;;;5030965;28;20036;-68
2024/01/30 01:11:40;;;;;;;6.88;3.00;;;4.30;91.10;;;;;;5045756;28;20033;-67
2024/01/30 01:14:06;;;;;;;6.22;2.58;;;4.20;91.00;;;;;;5049190;28;20029;-68
2024/01/30 01:16:31;;;;;;;4.53;2.40;;;4.20;91.10;;;;;;5046697;28;20064;-68
2024/01/30 01:18:57;;;;;;;3.65;2.00;;;4.10;91.10;;;;;;5046557;28;20037;-68
2024/01/30 01:21:23;;;;;;;4.63;2.65;;;4.20;91.20;;;;;;5029633;28;20029;-68
2024/01/30 01:23:48;;;;;;;6.32;2.72;;;4.40;91.20;;;;;;5043195;28;20052;-68
2024/01/30 01:26:13;;;;;;;5.88;2.90;;;4.30;90.80;;;;;;5040571;28;20073;-68
2024/01/30 01:28:40;;;;;;;5.68;2.80;;;4.40;90.90;;;;;;5042446;28;20331;-68
2024/01/30 01:31:06;;;;;;;6.47;2.42;;;4.30;91.00;;;;;;5045353;28;20501;-68
2024/01/30 01:33:33;;;;;;;5.00;2.67;;;4.30;91.30;;;;;;5050044;28;20162;-68
2024/01/30 01:35:59;;;;;;;8.60;3.42;;;4.30;91.20;;;;;;5045683;28;20387;-68
2024/01/30 01:38:24;;;;;;;5.88;3.10;;;4.30;91.00;;;;;;5048445;28;20055;-68
2024/01/30 01:40:51;;;;;;;5.20;2.67;;;4.30;91.40;;;;;;5049698;28;20128;-68
2024/01/30 01:43:16;;;;;;;4.50;2.20;;;4.30;91.30;;;;;;5027865;28;20079;-68
2024/01/30 01:45:42;;;;;;;5.20;2.33;;;4.30;91.30;;;;;;5047106;28;20440;-68
2024/01/30 01:48:08;;;;;;;5.43;2.83;;;4.30;91.50;;;;;;5045917;28;20366;-68
2024/01/30 01:50:35;;;;;;;5.20;2.58;;;4.30;91.40;;;;;;5048550;28;20049;-68
2024/01/30 01:53:02;;;;;;;5.82;2.72;;;4.30;91.50;;;;;;5047787;28;20108;-68
2024/01/30 01:55:29;;;;;;;7.05;3.22;;;4.40;91.60;;;;;;5044414;28;20140;-68
2024/01/30 01:57:55;;;;;;;5.55;3.30;;;4.40;91.30;;;;;;5045994;28;20105;-68
2024/01/30 02:00:22;;;;;;;4.68;2.72;;;4.50;91.40;;;;;;5048473;28;20403;-68
2024/01/30 02:02:47;;;;;;;5.57;2.80;;;4.40;91.40;;;;;;5027840;28;20052;-68
2024/01/30 02:05:14;;;;;;;6.47;3.50;;;4.40;91.40;;;;;;5039426;28;20367;-68
2024/01/30 02:07:40;;;;;;;5.47;2.90;;;4.60;91.60;;;;;;5046310;28;20120;-68
2024/01/30 02:10:08;;;;;;;6.55;2.90;;;4.60;91.30;;;;;;5045766;28;20344;-68
2024/01/30 02:12:33;;;;;;;5.63;3.17;;;4.60;91.50;;;;;;5022437;28;20421;-68
2024/01/30 02:14:59;;;;;;;6.40;3.25;;;4.60;91.40;;;;;;5047909;28;20131;-68
2024/01/30 02:17:24;;;;;;;5.68;3.10;;;4.60;91.60;;;;;;5046761;28;20041;-68
2024/01/30 02:19:50;;;;;;;9.25;3.35;;;4.60;91.50;;;;;;5048490;28;20059;-68
2024/01/30 02:22:15;;;;;;;5.65;2.92;;;4.60;91.50;;;;;;5051244;28;20079;-68
2024/01/30 02:24:41;;;;;;;6.28;2.90;;;4.70;91.70;;;;;;5044222;28;20108;-67
2024/01/30 02:27:06;;;;;;;5.53;2.65;;;4.80;91.50;;;;;;5041801;28;20133;-68
2024/01/30 02:29:32;;;;;;;6.15;3.13;;;4.80;91.40;;;;;;5033799;28;20036;-68
2024/01/30 02:31:57;;;;;;;5.60;2.80;;;4.80;91.40;;;;;;5045916;28;20103;-68
2024/01/30 02:34:24;;;;;;;4.38;2.58;;;4.90;91.40;;;;;;5044229;28;20051;-68
2024/01/30 02:36:49;;;;;;;6.25;3.42;;;4.80;91.50;;;;;;5046344;28;20079;-68
2024/01/30 02:39:14;;;;;;;5.80;3.25;;;4.80;91.50;;;;;;5046840;28;20040;-68
2024/01/30 02:41:40;;;;;;;5.82;3.00;;;4.80;91.50;;;;;;5047670;28;20116;-68
2024/01/30 02:44:05;;;;;;;5.22;2.85;;;4.70;91.60;;;;;;5045314;28;20108;-68
2024/01/30 02:46:31;;;;;;;5.75;2.78;;;4.70;91.80;;;;;;5047349;28;20037;-68
2024/01/30 02:48:57;;;;;;;5.47;3.40;;;4.80;92.10;;;;;;5044971;28;20029;-68
2024/01/30 02:51:22;;;;;;;4.50;3.05;;;4.80;91.90;;;;;;5046642;28;20053;-68
2024/01/30 02:53:48;;;;;;;4.40;2.88;;;4.80;92.00;;;;;;5046040;28;20047;-68
2024/01/30 02:56:13;;;;;;;5.63;3.10;;;4.70;92.10;;;;;;5043654;28;20094;-68
2024/01/30 02:58:42;;;;;;;7.85;3.17;;;4.70;92.20;;;;;;5046824;28;20080;-68
2024/01/30 03:01:07;;;;;;;5.40;2.92;;;4.80;92.20;;;;;;5045929;28;20142;-68
2024/01/30 03:03:35;;;;;;;5.40;3.05;;;4.80;92.10;;;;;;5044711;28;20029;-68
2024/01/30 03:06:00;;;;;;;5.40;2.92;;;4.70;92.10;;;;;;5044435;28;20465;-68
2024/01/30 03:08:26;;;;;;;5.93;2.75;;;4.70;92.30;;;;;;5045016;28;20114;-68
2024/01/30 03:10:51;;;;;;;5.35;3.08;;;4.60;92.40;;;;;;5028093;28;20037;-68
2024/01/30 03:13:17;;;;;;;6.75;3.13;;;4.60;92.60;;;;;;5044155;28;20115;-68
2024/01/30 03:15:42;;;;;;;5.43;3.03;;;4.60;92.80;;;;;;5024529;28;20061;-68
2024/01/30 03:18:08;;;;;;;6.10;3.15;;;4.60;93.00;;;;;;5016944;28;20044;-68
2024/01/30 03:20:34;;;;;;;6.28;3.63;;;4.60;93.20;;;;;;5026093;28;20359;-68
2024/01/30 03:23:00;;;;;;;6.30;2.75;;;4.60;93.20;;;;;;5027125;28;20080;-68
2024/01/30 03:25:25;;;;;;;10.18;3.88;;;4.60;93.30;;;;;;5026176;28;20497;-68
2024/01/30 03:27:51;;;;;;;5.70;3.20;;;4.60;93.20;;;;;;5024697;28;20029;-68
2024/01/30 03:30:17;;;;;;;4.97;2.90;;;4.60;93.40;;;;;;5024267;28;20200;-68
2024/01/30 03:32:43;;;;;;;5.35;2.78;;;4.70;93.20;;;;;;5023867;28;20029;-68
2024/01/30 03:35:08;;;;;;;5.85;3.38;;;4.70;93.10;;;;;;5028751;28;20029;-68
2024/01/30 03:37:34;;;;;;;6.72;3.63;;;4.70;93.40;;;;;;5040804;28;20037;-68
2024/01/30 03:39:59;;;;;;;5.57;3.13;;;4.60;93.10;;;;;;5028853;28;20037;-68
2024/01/30 03:42:25;;;;;;;6.78;3.08;;;4.60;93.30;;;;;;5016697;28;20045;-68
2024/01/30 03:44:54;;;;;;;5.97;3.15;;;4.70;93.60;;;;;;5044708;28;20049;-68
2024/01/30 03:47:20;;;;;;;6.03;3.47;;;4.60;93.20;;;;;;5025170;28;20152;-68
2024/01/30 03:49:46;;;;;;;6.35;2.97;;;4.70;93.70;;;;;;5024735;28;20112;-68
2024/01/30 03:52:11;;;;;;;5.68;3.05;;;4.60;93.60;;;;;;5028334;28;20033;-68
2024/01/30 03:54:37;;;;;;;6.38;3.35;;;4.60;93.60;;;;;;5027431;28;20044;-68
2024/01/30 03:57:03;;;;;;;7.18;3.88;;;4.60;93.80;;;;;;5023888;28;20526;-68
2024/01/30 03:59:28;;;;;;;6.82;3.22;;;4.50;93.80;;;;;;5024734;28;20108;-68
2024/01/30 04:01:54;;;;;;;6.30;3.30;;;4.40;94.00;;;;;;5023777;28;20116;-68
2024/01/30 04:04:20;;;;;;;6.05;3.38;;;4.40;94.20;;;;;;5022061;28;20091;-68
2024/01/30 04:06:46;;;;;;;7.38;3.20;;;4.40;94.30;;;;;;5019705;28;20037;-68
2024/01/30 04:09:13;;;;;;;7.25;3.38;;;4.40;94.50;;;;;;5026232;28;20121;-68
2024/01/30 04:11:39;;;;;;;6.40;2.92;;;4.40;94.40;;;;;;5037642;28;20043;-68
2024/01/30 04:14:04;;;;;;;6.68;3.83;;;4.40;94.50;;;;;;5039761;28;20451;-68
2024/01/30 04:16:30;;;;;;;6.97;3.40;;;4.40;94.70;;;;;;5041512;28;20104;-68
2024/01/30 04:18:56;;;;;;;6.88;4.18;;;4.30;94.50;;;;;;5047293;28;20047;-68
2024/01/30 04:21:22;;;;;;;5.75;3.55;;;4.30;94.60;;;;;;5046790;28;20112;-68
2024/01/30 04:23:48;;;;;;;7.22;3.65;;;4.20;94.50;;;;;;5042771;28;20429;-68
2024/01/30 04:26:13;;;;;;;6.93;3.75;;;4.20;94.70;;;;;;5045085;28;20136;-68
2024/01/30 04:28:41;;;;;;;8.70;4.32;;;4.20;94.90;;;;;;5045233;28;20037;-68
2024/01/30 04:31:07;;;;;;;5.55;2.92;;;4.20;94.90;;;;;;5043965;28;20044;-68
2024/01/30 04:33:32;;;;;;;5.70;3.03;;;4.20;95.10;;;;;;5043906;28;20525;-69
2024/01/30 04:35:58;;;;;;;8.32;3.75;;;4.20;95.10;;;;;;5042018;28;20120;-68
2024/01/30 04:38:23;;;;;;;8.95;3.67;;;4.30;95.40;;;;;;5042754;28;20051;-68
2024/01/30 04:40:49;;;;;;;7.78;4.43;;;4.30;95.20;;;;;;5052817;28;20037;-68
2024/01/30 04:43:15;;;;;;;8.38;3.78;;;4.30;95.20;;;;;;5039189;28;20036;-68
2024/01/30 04:45:41;;;;;;;5.72;2.95;;;4.20;95.20;;;;;;5054273;28;20032;-68
2024/01/30 04:48:07;;;;;;;7.07;3.35;;;4.20;95.50;;;;;;5041012;28;20086;-68
2024/01/30 04:50:32;;;;;;;5.75;3.40;;;4.20;95.50;;;;;;5046660;28;20033;-68
2024/01/30 04:52:58;;;;;;;8.38;4.13;;;4.30;95.40;;;;;;5045340;28;20043;-68
2024/01/30 04:55:23;;;;;;;6.88;3.67;;;4.40;95.60;;;;;;5041103;28;20045;-68
2024/01/30 04:57:49;;;;;;;7.30;3.70;;;4.40;95.60;;;;;;5044786;28;20390;-68
2024/01/30 05:00:15;;;;;;;7.28;3.70;;;4.40;95.50;;;;;;5049250;28;20029;-69
2024/01/30 05:02:40;;;;;;;8.98;4.70;;;4.50;95.60;;;;;;5044969;28;20029;-68
2024/01/30 05:05:06;;;;;;;7.18;3.42;;;4.60;95.60;;;;;;5052929;28;20048;-68
2024/01/30 05:07:31;;;;;;;5.10;3.10;;;4.60;95.40;;;;;;5048804;28;20112;-68
2024/01/30 05:09:57;;;;;;;7.15;3.75;;;4.60;95.30;;;;;;5052053;28;20072;-68
2024/01/30 05:12:22;;;;;;;8.50;4.35;;;4.60;95.30;;;;;;5049061;28;20211;-68
2024/01/30 05:14:48;;;;;;;7.32;4.07;;;4.60;95.30;;;;;;5047319;28;20143;-68
2024/01/30 05:17:13;;;;;;;7.18;4.18;;;4.50;95.40;;;;;;5046934;28;20036;-68
2024/01/30 05:19:39;;;;;;;5.82;3.42;;;4.40;95.40;;;;;;5048246;28;20036;-68
2024/01/30 05:22:04;;;;;;;8.27;4.45;;;4.30;95.50;;;;;;5049584;28;20035;-68
2024/01/30 05:24:30;;;;;;;6.43;3.20;;;4.30;95.80;;;;;;5045115;28;20078;-68
2024/01/30 05:26:55;;;;;;;7.88;3.90;;;4.30;96.00;;;;;;5048357;28;20044;-68
2024/01/30 05:29:21;;;;;;;6.90;4.22;;;4.40;96.00;;;;;;5047607;28;20127;-67
2024/01/30 05:31:46;;;;;;;6.85;3.70;;;4.40;96.00;;;;;;5048748;28;20047;-66
2024/01/30 05:34:12;;;;;;;7.20;4.18;;;4.30;95.90;;;;;;5040684;28;20186;-65
2024/01/30 05:36:37;;;;;;;6.10;3.38;;;4.30;96.00;;;;;;5048525;28;20427;-65
2024/01/30 05:39:02;;;;;;;7.18;3.55;;;4.30;96.10;;;;;;5047116;28;20045;-66
2024/01/30 05:41:28;;;;;;;6.70;3.47;;;4.50;96.40;;;;;;5046840;28;20075;-66
2024/01/30 05:43:53;;;;;;;8.15;4.05;;;4.60;96.20;;;;;;5044779;28;20123;-66
2024/01/30 05:46:19;;;;;;;5.78;3.28;;;4.70;96.20;;;;;;5044562;28;20033;-66
2024/01/30 05:48:44;;;;;;;8.05;4.05;;;4.70;95.80;;;;;;5045404;28;20056;-66
2024/01/30 05:51:10;;;;;;;7.10;3.92;;;4.70;95.70;;;;;;5050275;28;20049;-66
2024/01/30 05:53:35;;;;;;;5.85;3.20;;;4.80;95.80;;;;;;5050970;28;20082;-65
2024/01/30 05:56:02;;;;;;;8.63;3.90;;;4.80;95.50;;;;;;5046478;28;20120;-66
2024/01/30 05:58:27;;;;;;;7.35;4.53;;;4.70;95.60;;;;;;5039434;28;20040;-66
2024/01/30 06:00:53;;;;;;;8.70;3.95;;;4.90;95.70;;;;;;5047137;28;20442;-66
2024/01/30 06:03:18;;;;;;;8.77;3.83;;;4.80;95.50;;;;;;5043400;28;20056;-66
2024/01/30 06:05:44;;;;;;;6.45;3.80;;;4.80;95.40;;;;;;5047595;28;20033;-65
2024/01/30 06:08:09;;;;;;;6.60;3.67;;;4.80;95.40;;;;;;5047848;28;20214;-66
2024/01/30 06:10:35;;;;;;;7.38;3.90;;;4.80;95.40;;;;;;5042195;28;20397;-66
2024/01/30 06:13:00;;;;;;;8.23;3.85;;;4.90;95.50;;;;;;5041355;28;20045;-64
2024/01/30 06:15:26;;;;;;;7.13;3.55;;;4.90;95.40;;;;;;5045227;28;20390;-65
2024/01/30 06:17:51;;;;;;;6.88;3.42;;;4.90;95.50;;;;;;5041649;28;20343;-66
2024/01/30 06:20:17;;;;;;;6.57;3.45;;;4.90;95.30;;;;;;5045564;28;20675;-65
2024/01/30 06:22:43;;;;;;;8.18;3.90;;;4.90;95.40;;;;;;5040177;28;20375;-66
2024/01/30 06:25:08;;;;;;;8.30;4.00;;;4.90;95.50;;;;;;5045740;28;20089;-66
2024/01/30 06:27:34;;;;;;;6.55;3.53;;;4.80;95.20;;;;;;5043218;28;20095;-66
2024/01/30 06:30:01;;;;;;;5.50;3.53;;;4.80;95.30;;;;;;5042562;28;20056;-66
2024/01/30 06:32:28;;;;;;;6.93;3.83;;;4.70;95.30;;;;;;5044607;28;20109;-65
2024/01/30 06:34:54;;;;;;;7.57;3.45;;;4.70;95.40;;;;;;5045654;28;20116;-66
2024/01/30 06:37:19;;;;;;;5.75;3.70;;;4.60;95.50;;;;;;5046456;28;20673;-67
2024/01/30 06:39:44;;;;;;;6.55;3.33;;;4.60;95.80;;;;;;5044477;28;20037;-66
2024/01/30 06:42:11;;;;;;;9.15;4.30;;;4.60;95.70;;;;;;5049442;28;20056;-66
2024/01/30 06:44:37;;;;;;;6.57;3.15;;;4.60;95.70;;;;;;5044725;28;20124;-66
2024/01/30 06:47:02;;;;;;;6.93;3.63;;;4.60;95.80;;;;;;5046138;28;20610;-67
2024/01/30 06:49:28;;;;;;;7.88;4.07;;;4.60;95.90;;;;;;5043839;28;20055;-66
2024/01/30 06:51:53;;;;;;;9.43;4.97;;;4.60;95.80;;;;;;5033738;28;20041;-66
2024/01/30 06:54:19;;;;;;;6.63;3.75;;;4.50;95.90;;;;;;5047318;28;20452;-66
2024/01/30 06:56:44;;;;;;;5.97;3.90;;;4.50;96.00;;;;;;5029354;28;20121;-66
2024/01/30 06:59:10;;;;;;;8.18;4.05;;;4.60;96.20;;;;;;5044952;28;20491;-69
2024/01/30 07:01:35;;;;;;;7.78;3.83;;;4.50;96.00;;;;;;5050790;28;20411;-69
2024/01/30 07:04:00;;;;;;;6.65;3.70;;;4.50;96.20;;;;;;5044620;28;20133;-68
2024/01/30 07:06:26;;;;;;;7.82;3.67;;;4.40;96.20;;;;;;5044636;28;20473;-66
2024/01/30 07:08:51;;;;;;;6.57;3.97;;;4.60;96.30;;;;;;5047284;28;20032;-66
2024/01/30 07:11:22;;;;;;;7.32;3.70;;;4.60;96.30;;;;;;5044482;28;20037;-66
2024/01/30 07:13:48;;;;;;;6.50;3.92;;;4.60;96.30;;;;;;5043787;28;20320;-66
2024/01/30 07:16:14;;;;;;;6.93;3.60;;;4.50;96.30;;;;;;5052636;28;20071;-66
2024/01/30 07:18:39;;;;;;;7.53;3.45;;;4.50;96.30;;;;;;5044505;28;20033;-66
2024/01/30 07:21:05;;;;;;;8.55;3.85;;;4.60;96.50;;;;;;5048706;28;20032;-66
2024/01/30 07:23:30;;;;;;;6.90;3.42;;;4.60;96.70;;;;;;5046864;28;20472;-66
2024/01/30 07:25:56;;;;;;;7.38;4.18;;;4.70;96.60;;;;;;5046258;28;20029;-66
2024/01/30 07:28:21;;;;;;;9.48;4.32;;;4.80;96.30;;;;;;5043047;28;20037;-66
2024/01/30 07:30:48;;;;;;;7.30;3.60;;;4.80;96.20;;;;;;5044789;28;20178;-66
2024/01/30 07:33:13;;;;;;;7.43;4.00;;;4.90;96.20;;;;;;5043614;28;20690;-66
2024/01/30 07:35:39;;;;;;;7.70;4.35;;;4.90;96.00;;;;;;5037285;28;20024;-66
2024/01/30 07:38:04;;;;;;;8.15;4.45;;;4.90;95.90;;;;;;5046862;28;20044;-66
2024/01/30 07:40:30;;;;;;;8.82;4.03;;;4.90;95.80;;;;;;5034852;28;20039;-67
2024/01/30 07:42:55;;;;;;;7.88;4.18;;;4.80;95.90;;;;;;5046934;28;20036;-67
2024/01/30 07:45:25;;;;;;;9.05;4.00;;;4.90;95.80;;;;;;5045087;28;20036;-67
2024/01/30 07:47:51;;;;;;;8.35;4.25;;;5.00;95.70;;;;;;5043717;28;20017;-68
2024/01/30 07:50:17;;;;;;;7.13;3.67;;;5.00;95.90;;;;;;5045794;28;20049;-66
2024/01/30 07:52:45;;;;;;;8.88;4.40;;;5.10;95.50;;;;;;5046959;28;20039;-67
2024/01/30 07:55:12;;;;;;;7.32;3.80;;;5.10;95.40;;;;;;5044527;28;20029;-67
2024/01/30 07:57:39;;;;;;;8.13;4.25;;;5.10;95.30;;;;;;5045831;28;20029;-67
2024/01/30 08:00:07;;;;;;;10.10;4.72;;;5.30;95.40;;;;;;5050079;28;20037;-67
2024/01/30 08:02:32;;;;;;;7.55;4.72;;;5.30;95.30;;;;;;5051196;28;20116;-66
2024/01/30 08:04:58;;;;;;;6.32;3.58;;;5.30;95.00;;;;;;5045119;28;20400;-67
2024/01/30 08:07:23;;;;;;;8.10;3.40;;;5.30;95.00;;;;;;5048560;28;20119;-66
2024/01/30 08:09:49;;;;;;;7.57;3.95;;;5.40;94.90;;;;;;5044853;28;20025;-66
2024/01/30 08:12:14;;;;;;;7.93;4.38;;;5.50;94.90;;;;;;5042647;28;20081;-67
2024/01/30 08:14:41;;;;;;;7.65;4.15;;;5.50;94.80;;;;;;5046069;28;20102;-66
2024/01/30 08:17:07;;;;;;;7.50;3.92;;;5.60;94.50;;;;;;5044554;28;20212;-67
2024/01/30 08:19:33;;;;;;;7.85;4.28;;;5.60;94.30;;;;;;5044903;28;20029;-67
2024/01/30 08:21:58;;;;;;;7.13;4.43;;;5.60;94.30;;;;;;5046626;28;20138;-66
2024/01/30 08:24:24;;;;;;;6.10;3.65;;;5.60;94.40;;;;;;5044869;28;20115;-66
2024/01/30 08:26:49;;;;;;;7.40;4.30;;;5.60;94.20;;;;;;5045731;28;20109;-66
2024/01/30 08:29:15;;;;;;;8.02;3.47;;;5.70;94.10;;;;;;5041709;28;20033;-67
2024/01/30 08:31:40;;;;;;;7.28;4.15;;;5.80;94.00;;;;;;5052475;28;20047;-66
2024/01/30 08:34:05;;;;;;;7.68;4.20;;;5.80;93.90;;;;;;5048405;28;20104;-66
2024/01/30 08:36:31;;;;;;;8.95;4.53;;;5.90;93.80;;;;;;5049595;28;20029;-67
2024/01/30 08:38:56;;;;;;;6.85;3.90;;;6.00;93.70;;;;;;5049355;28;20037;-67
2024/01/30 08:41:22;;;;;;;7.85;3.72;;;6.00;93.70;;;;;;5055170;28;20138;-67
2024/01/30 08:43:47;;;;;;;7.15;3.88;;;6.10;93.20;;;;;;5049256;28;20043;-66
2024/01/30 08:46:13;;;;;;;7.78;4.00;;;6.20;92.90;;;;;;5041615;28;20040;-66
2024/01/30 08:48:38;;;;;;;6.38;3.33;;;6.30;93.00;;;;;;5046992;28;20438;-67
2024/01/30 08:51:08;;;;;;;6.55;3.90;;;6.30;92.80;;;;;;5050209;28;20059;-66
2024/01/30 08:53:33;;;;;;;6.68;3.67;;;6.40;92.70;;;;;;5049117;28;20450;-67
2024/01/30 08:55:59;;;;;;;7.00;3.60;;;6.50;92.40;;;;;;5044354;28;20017;-66
2024/01/30 08:58:24;;;;;;;7.55;3.67;;;6.50;92.30;;;;;;5050498;28;20037;-67
2024/01/30 09:00:51;;;;;;;7.45;4.20;;;6.60;92.20;;;;;;5058966;28;20141;-66
2024/01/30 09:03:17;;;;;;;6.93;3.72;;;6.70;92.00;;;;;;5055133;28;20063;-67
2024/01/30 09:05:42;;;;;;;5.38;3.00;;;6.70;91.80;;;;;;5049665;28;20029;-67
2024/01/30 09:08:07;;;;;;;6.22;3.65;;;6.80;91.70;;;;;;5053070;28;20479;-68
2024/01/30 09:10:33;;;;;;;7.72;3.28;;;6.80;91.70;;;;;;5064730;28;20044;-66
2024/01/30 09:12:58;;;;;;;6.95;3.65;;;6.80;91.50;;;;;;5056490;28;20029;-66
2024/01/30 09:15:24;;;;;;;5.95;3.53;;;6.80;91.50;;;;;;5058240;28;20084;-67
2024/01/30 09:17:50;;;;;;;5.10;2.88;;;6.90;91.50;;;;;;5046575;28;20471;-67
2024/01/30 09:20:15;;;;;;;6.72;3.95;;;6.90;91.50;;;;;;5048834;28;20021;-66
2024/01/30 09:22:41;;;;;;;6.63;3.42;;;7.00;91.30;;;;;;5049619;28;20098;-66
2024/01/30 09:25:07;;;;;;;8.35;3.70;;;7.00;91.00;;;;;;5043418;28;20039;-67
2024/01/30 09:27:32;;;;;;;5.75;3.30;;;7.10;90.90;;;;;;5048630;28;20036;-66
2024/01/30 09:29:57;;;;;;;6.30;3.50;;;7.10;90.90;;;;;;5047493;28;20035;-66
2024/01/30 09:32:23;;;;;;;6.25;3.30;;;7.10;90.50;;;;;;5049949;28;20032;-66
2024/01/30 09:34:48;;;;;;;8.60;3.67;;;7.20;90.60;;;;;;5034460;28;20040;-66
2024/01/30 09:37:15;;;;;;;5.95;3.35;;;7.30;90.40;;;;;;5048054;28;20518;-68
2024/01/30 09:39:41;;;;;;;7.60;3.70;;;7.30;90.40;;;;;;5047977;28;20108;-67
2024/01/30 09:42:13;;;;;;;6.18;3.53;;;7.30;90.20;;;;;;5046909;28;20112;-67
2024/01/30 09:44:43;;;;;;;5.88;3.28;;;7.40;90.00;;;;;;5048391;28;20536;-67
2024/01/30 09:47:08;;;;;;;6.47;3.38;;;7.50;90.00;;;;;;5049539;28;20389;-68
2024/01/30 09:49:35;;;;;;;6.20;3.75;;;7.50;89.40;;;;;;5051004;28;20094;-67
2024/01/30 09:52:03;;;;;;;5.60;3.42;;;7.50;89.40;;;;;;5052253;28;20036;-68
2024/01/30 09:54:31;;;;;;;6.30;3.08;;;7.60;89.40;;;;;;5047934;28;20066;-66
2024/01/30 09:56:56;;;;;;;8.20;4.03;;;7.60;89.40;;;;;;5042352;28;20021;-67
2024/01/30 09:59:22;;;;;;;7.32;3.75;;;7.60;89.50;;;;;;5048324;28;20052;-66
2024/01/30 10:01:48;;;;;;;8.82;3.90;;;7.70;89.30;;;;;;5044527;28;20350;-66
2024/01/30 10:04:13;;;;;;;5.40;3.08;;;7.60;89.00;;;;;;5046373;28;20466;-67
2024/01/30 10:06:40;;;;;;;7.45;3.50;;;7.80;89.40;;;;;;5053824;28;20049;-66
2024/01/30 10:09:05;;;;;;;5.40;3.17;;;7.70;88.70;;;;;;5047693;28;20371;-67
2024/01/30 10:11:31;;;;;;;6.97;3.78;;;7.80;88.70;;;;;;5025161;28;20041;-66
2024/01/30 10:13:56;;;;;;;6.63;3.30;;;7.90;88.90;;;;;;5054196;28;20470;-66
2024/01/30 10:16:22;;;;;;;11.13;3.92;;;7.90;88.50;;;;;;5041501;28;20475;-67
2024/01/30 10:18:47;;;;;;;6.20;3.50;;;8.00;88.50;;;;;;5026479;28;20044;-67
2024/01/30 10:21:13;;;;;;;6.25;3.35;;;8.00;88.30;;;;;;5023934;28;20112;-67
2024/01/30 10:23:38;;;;;;;7.05;3.20;;;8.10;88.40;;;;;;5027054;28;20026;-67
2024/01/30 10:26:04;;;;;;;6.65;3.13;;;8.10;88.50;;;;;;5027514;28;20077;-66
2024/01/30 10:28:30;;;;;;;10.52;4.28;;;8.10;88.50;;;;;;5023563;28;20029;-66
2024/01/30 10:30:59;;;;;;;5.75;3.15;;;8.10;88.20;;;;;;5019596;28;20435;-67
2024/01/30 10:33:27;;;;;;;5.55;3.10;;;8.10;88.10;;;;;;5019321;28;20034;-67
2024/01/30 10:36:06;;;;;;;6.38;3.85;;;8.10;88.10;;;;;;5020521;28;20048;-69
2024/01/30 10:38:32;;;;;;;6.22;3.30;;;8.10;88.10;;;;;;5026813;28;20045;-66
2024/01/30 10:40:59;;;;;;;5.80;3.38;;;8.10;88.40;;;;;;5021530;28;20025;-66
2024/01/30 10:43:38;;;;;;;5.53;2.80;;;8.10;88.00;;;;;;5022004;28;20128;-67
2024/01/30 10:46:29;;;;;;;6.00;3.25;;;8.20;88.10;;;;;;5021875;28;20022;-66
2024/01/30 10:49:01;;;;;;;7.63;3.38;;;8.10;88.10;;;;;;5039367;28;20424;-67
2024/01/30 10:51:28;;;;;;;6.63;3.63;;;8.20;88.10;;;;;;5029928;28;20041;-67
2024/01/30 10:53:55;;;;;;;7.60;3.17;;;8.20;88.00;;;;;;5022039;28;20029;-66
2024/01/30 10:56:21;;;;;;;6.78;3.42;;;8.30;88.00;;;;;;5028494;28;20443;-67
2024/01/30 10:58:52;;;;;;;8.88;3.55;;;8.30;88.00;;;;;;5034844;28;20033;-67
2024/01/30 11:01:19;;;;;;;6.47;3.25;;;8.30;87.50;;;;;;5026353;28;20037;-67
2024/01/30 11:03:45;;;;;;;4.88;2.65;;;8.30;87.90;;;;;;5029497;28;20095;-66
2024/01/30 11:06:18;;;;;;;7.82;3.17;;;8.30;87.90;;;;;;5037484;28;20034;-66
2024/01/30 11:08:44;;;;;;;5.65;3.13;;;8.30;88.00;;;;;;5041262;28;20348;-67
2024/01/30 11:11:10;;;;;;;6.57;3.13;;;8.30;87.80;;;;;;5034112;28;20040;-67
2024/01/30 11:13:36;;;;;;;7.47;3.03;;;8.30;87.80;;;;;;5031762;28;20032;-67
2024/01/30 11:16:02;;;;;;;7.25;3.22;;;8.30;87.80;;;;;;5042935;28;20055;-66
2024/01/30 11:18:33;;;;;;;5.50;3.05;;;8.40;88.20;;;;;;5043231;28;20534;-66
2024/01/30 11:21:01;;;;;;;9.33;3.37;;;8.40;87.80;;;;;;5043789;28;20101;-67
2024/01/30 11:23:27;;;;;;;5.63;3.20;;;8.40;88.00;;;;;;5049276;28;20101;-67
2024/01/30 11:25:53;;;;;;;4.30;2.88;;;8.40;88.20;;;;;;5039930;28;20032;-66
2024/01/30 11:28:21;;;;;;;6.38;3.40;;;8.40;88.00;;;;;;5048541;28;20111;-67
2024/01/30 11:30:47;;;;;;;6.00;3.33;;;8.30;87.90;;;;;;5045901;28;20048;-67
2024/01/30 11:33:14;;;;;;;6.07;3.15;;;8.40;88.20;;;;;;5049488;28;20115;-67
2024/01/30 11:35:44;;;;;;;5.60;2.88;;;8.50;88.30;;;;;;5046685;28;20055;-66
2024/01/30 11:38:14;;;;;;;6.30;3.05;;;8.50;87.80;;;;;;5041923;28;20021;-66
2024/01/30 11:40:40;;;;;;;6.80;2.80;;;8.60;87.90;;;;;;5041571;28;20132;-67
2024/01/30 11:43:08;;;;;;;6.57;3.15;;;8.70;88.00;;;;;;5048114;28;20102;-66
2024/01/30 11:45:34;;;;;;;6.03;3.15;;;8.70;88.00;;;;;;5045188;28;20957;-67
2024/01/30 11:48:01;;;;;;;6.47;2.95;;;8.80;87.70;;;;;;5041608;28;20040;-66
2024/01/30 11:50:27;;;;;;;6.10;3.30;;;9.00;87.50;;;;;;5055996;28;20040;-67
2024/01/30 11:52:54;;;;;;;5.95;3.15;;;8.90;87.50;;;;;;5045870;28;20040;-66
2024/01/30 11:55:20;;;;;;;5.32;3.05;;;9.00;87.50;;;;;;5045229;28;20066;-67
2024/01/30 11:57:45;;;;;;;6.20;3.03;;;9.00;87.30;;;;;;5044574;28;20045;-66
2024/01/30 12:00:15;;;;;;;5.57;2.97;;;9.00;87.10;;;;;;5058861;28;20059;-67
2024/01/30 12:02:41;;;;;;;7.75;3.35;;;9.00;87.20;;;;;;5048117;28;20029;-66
2024/01/30 12:05:07;;;;;;;5.82;3.28;;;9.10;87.20;;;;;;5050397;28;20051;-67
2024/01/30 12:07:33;;;;;;;6.57;3.10;;;9.10;87.30;;;;;;5049509;28;20020;-68
2024/01/30 12:09:59;;;;;;;6.55;3.20;;;9.10;87.50;;;;;;5052816;28;20037;-67
2024/01/30 12:12:26;;;;;;;5.43;2.70;;;9.20;87.50;;;;;;5045744;28;20416;-67
2024/01/30 12:14:52;;;;;;;7.53;2.85;;;9.20;87.30;;;;;;5051373;28;20132;-66
2024/01/30 12:17:28;;;;;;;4.88;2.47;;;9.20;87.20;;;;;;5049017;28;20192;-68
2024/01/30 12:20:06;;;;;;;7.38;3.20;;;9.30;87.20;;;;;;5054122;28;20050;-67
2024/01/30 12:22:42;;;;;;;5.07;2.75;;;9.40;87.40;;;;;;5043384;28;20342;-67
2024/01/30 12:25:12;;;;;;;5.13;2.45;;;9.30;87.20;;;;;;5051801;28;20454;-66
2024/01/30 12:27:38;;;;;;;5.18;2.70;;;9.40;87.00;;;;;;5060492;28;20052;-67
2024/01/30 12:30:07;;;;;;;5.53;2.88;;;9.40;87.20;;;;;;5056010;28;20468;-66
2024/01/30 12:32:35;;;;;;;7.30;3.03;;;9.40;87.10;;;;;;5051928;28;20036;-68
2024/01/30 12:35:01;;;;;;;5.35;2.83;;;9.40;87.40;;;;;;5055131;28;20032;-67
2024/01/30 12:37:27;;;;;;;4.53;2.60;;;9.40;87.40;;;;;;5052315;28;20471;-67
2024/01/30 12:39:53;;;;;;;5.53;2.83;;;9.50;87.50;;;;;;5051283;28;20073;-67
2024/01/30 12:42:21;;;;;;;5.07;2.65;;;9.40;87.60;;;;;;5057763;28;20032;-67
2024/01/30 12:44:47;;;;;;;5.55;2.53;;;9.50;87.40;;;;;;5049615;28;20071;-67
2024/01/30 12:47:12;;;;;;;6.88;2.65;;;9.40;87.80;;;;;;5047286;28;20052;-67
2024/01/30 12:49:38;;;;;;;7.47;2.70;;;9.40;87.40;;;;;;5047993;28;20104;-69
2024/01/30 12:52:03;;;;;;;6.38;3.40;;;9.40;87.60;;;;;;5042556;28;20085;-66